Time;durP1;ratioP1;P1;durP2;ratioP2;P2;SDS_P1;SDS_P2;PMS_P1;PMS_P2;Temp;Humidity;BMP_temperature;BMP_pressure;BME280_temperature;BME280_humidity;BME280_pressure;Samples;Min_cycle;Max_cycle;Signal;HPM_P1;HPM_P2
2022/12/29 00:00:37;;;;;;;11.00;9.77;;;8.40;99.90;;;;;;5107041;28;20692;-74
2022/12/29 00:03:07;;;;;;;11.57;9.20;;;8.50;99.90;;;;;;5108937;28;20192;-76
2022/12/29 00:05:36;;;;;;;12.03;8.50;;;8.50;99.90;;;;;;5107896;28;20192;-76
2022/12/29 00:08:05;;;;;;;11.50;8.30;;;8.50;99.90;;;;;;5107415;28;20192;-71
2022/12/29 00:10:34;;;;;;;12.37;8.30;;;8.60;99.90;;;;;;5106501;28;20549;-70
2022/12/29 00:15:50;;;;;;;10.13;7.83;;;8.50;99.90;;;;;;5107701;28;20241;-67
2022/12/29 00:18:20;;;;;;;9.13;8.03;;;8.50;99.90;;;;;;5107489;28;20751;-69
2022/12/29 00:35:19;;;;;;;7.00;6.17;;;8.40;99.90;;;;;;4972142;28;20196;-73
2022/12/29 00:46:08;;;;;;;5.53;5.03;;;8.30;99.90;;;;;;4973141;28;20204;-70
2022/12/29 00:51:29;;;;;;;6.97;5.10;;;8.20;99.90;;;;;;4967808;28;20212;-77
2022/12/29 00:53:59;;;;;;;6.73;4.73;;;8.30;99.90;;;;;;4972843;28;20731;-76
2022/12/29 00:56:28;;;;;;;5.07;4.40;;;8.30;99.90;;;;;;4972989;28;20701;-78
2022/12/29 00:59:00;;;;;;;6.07;4.60;;;8.20;99.90;;;;;;4973121;28;20208;-72
2022/12/29 01:01:29;;;;;;;5.17;4.67;;;8.10;99.90;;;;;;5029273;28;20214;-76
2022/12/29 01:03:58;;;;;;;6.03;4.17;;;8.20;99.90;;;;;;5062830;28;20216;-77
2022/12/29 01:06:33;;;;;;;4.57;4.27;;;8.20;99.90;;;;;;5072545;28;20676;-78
2022/12/29 01:11:49;;;;;;;3.70;3.40;;;8.20;99.90;;;;;;5072202;28;20205;-72
2022/12/29 01:14:19;;;;;;;5.23;4.40;;;8.10;99.90;;;;;;5073715;28;20217;-74
2022/12/29 01:16:48;;;;;;;3.97;3.67;;;8.10;99.90;;;;;;5073554;28;20205;-75
2022/12/29 01:19:18;;;;;;;4.20;3.80;;;8.00;99.90;;;;;;5072567;28;20209;-77
2022/12/29 01:21:49;;;;;;;3.90;3.63;;;8.00;99.90;;;;;;5073631;28;20541;-75
2022/12/29 01:24:21;;;;;;;4.50;4.10;;;8.00;99.90;;;;;;5072279;28;20251;-70
2022/12/29 01:26:50;;;;;;;4.20;3.90;;;8.10;99.90;;;;;;5098379;28;20224;-74
2022/12/29 01:29:19;;;;;;;4.33;4.03;;;8.10;99.90;;;;;;5084503;28;20288;-70
2022/12/29 01:31:49;;;;;;;4.23;3.90;;;8.10;99.90;;;;;;5091726;28;20204;-69
2022/12/29 01:34:18;;;;;;;4.27;3.90;;;8.20;99.90;;;;;;5092123;28;20240;-76
2022/12/29 01:36:48;;;;;;;5.00;4.30;;;8.10;99.90;;;;;;5091970;28;20257;-68
2022/12/29 01:39:17;;;;;;;3.80;3.50;;;8.10;99.90;;;;;;5092125;28;20660;-69
2022/12/29 01:41:46;;;;;;;4.50;4.10;;;8.10;99.90;;;;;;5091872;28;20238;-69
2022/12/29 01:44:48;;;;;;;4.13;3.83;;;8.10;99.90;;;;;;5093244;28;20220;-69
2022/12/29 01:47:24;;;;;;;3.97;3.67;;;8.10;99.90;;;;;;5093434;28;20195;-70
2022/12/29 01:49:56;;;;;;;3.33;3.03;;;8.10;99.90;;;;;;5093632;28;20567;-74
2022/12/29 01:52:31;;;;;;;3.00;2.90;;;8.10;99.90;;;;;;5093242;28;20557;-70
2022/12/29 01:55:01;;;;;;;3.43;3.13;;;8.10;99.90;;;;;;5091583;28;20235;-68
2022/12/29 01:57:32;;;;;;;3.10;2.80;;;8.00;99.90;;;;;;5093117;28;20270;-76
2022/12/29 02:00:05;;;;;;;3.07;2.87;;;8.00;99.90;;;;;;5091649;28;20207;-68
2022/12/29 02:02:41;;;;;;;8.73;6.50;;;8.00;99.90;;;;;;5093138;28;20266;-70
2022/12/29 02:05:17;;;;;;;3.03;2.80;;;8.10;99.90;;;;;;5092750;28;20677;-68
2022/12/29 02:07:48;;;;;;;3.50;3.20;;;8.10;99.90;;;;;;5092009;28;20290;-68
2022/12/29 02:10:21;;;;;;;3.00;2.80;;;8.00;99.90;;;;;;5091389;28;20200;-68
2022/12/29 02:12:50;;;;;;;3.40;2.80;;;8.00;99.90;;;;;;5091194;28;20641;-70
2022/12/29 02:15:22;;;;;;;3.13;2.90;;;8.00;99.90;;;;;;5091448;28;20641;-68
2022/12/29 02:18:09;;;;;;;3.40;2.90;;;8.00;99.90;;;;;;5092598;28;20218;-68
2022/12/29 02:21:01;;;;;;;2.90;2.70;;;8.10;99.90;;;;;;5091220;28;20204;-75
2022/12/29 02:24:01;;;;;;;3.27;3.07;;;8.10;99.90;;;;;;5091327;28;20295;-69
2022/12/29 02:26:45;;;;;;;3.10;2.90;;;8.10;99.90;;;;;;5091730;28;20202;-70
2022/12/29 02:29:46;;;;;;;3.00;2.80;;;8.00;99.90;;;;;;5089730;28;20484;-74
2022/12/29 02:32:28;;;;;;;2.80;2.60;;;8.00;99.90;;;;;;5105523;28;20681;-72
2022/12/29 02:35:06;;;;;;;3.90;3.60;;;8.00;99.90;;;;;;5090959;28;20241;-71
2022/12/29 02:37:43;;;;;;;3.67;3.37;;;8.00;99.90;;;;;;5091016;28;20567;-70
2022/12/29 02:40:20;;;;;;;3.83;3.53;;;8.10;99.90;;;;;;5090767;28;20701;-69
2022/12/29 02:42:52;;;;;;;3.63;3.13;;;8.00;99.90;;;;;;5090823;28;20204;-70
2022/12/29 02:45:28;;;;;;;3.40;3.17;;;8.00;99.90;;;;;;5090954;28;20678;-68
2022/12/29 02:48:05;;;;;;;3.30;3.10;;;8.00;99.90;;;;;;5091928;28;20203;-71
2022/12/29 02:50:38;;;;;;;3.63;3.43;;;8.00;99.90;;;;;;5090240;28;20197;-70
2022/12/29 02:53:12;;;;;;;3.43;3.23;;;8.00;99.90;;;;;;5089137;28;20201;-74
2022/12/29 02:55:47;;;;;;;4.73;3.00;;;8.00;99.90;;;;;;5089783;28;20216;-68
2022/12/29 02:58:20;;;;;;;4.87;3.53;;;8.00;99.90;;;;;;5091090;28;20292;-69
2022/12/29 03:01:08;;;;;;;3.30;3.10;;;8.00;99.90;;;;;;5092122;28;20238;-72
2022/12/29 03:03:50;;;;;;;3.43;3.23;;;8.00;99.90;;;;;;5090374;28;20203;-69
2022/12/29 03:06:33;;;;;;;2.97;2.77;;;8.00;99.90;;;;;;5090541;28;20291;-73
2022/12/29 03:09:11;;;;;;;5.83;3.13;;;8.10;99.90;;;;;;5090703;28;20208;-70
2022/12/29 03:12:10;;;;;;;3.47;3.13;;;8.10;99.90;;;;;;5090214;28;20295;-70
2022/12/29 03:17:48;;;;;;;4.03;3.57;;;8.20;99.90;;;;;;5090289;28;20204;-69
2022/12/29 03:20:23;;;;;;;6.03;3.77;;;8.30;99.90;;;;;;5075715;28;20286;-69
2022/12/29 03:23:01;;;;;;;3.40;3.03;;;8.10;99.90;;;;;;5072033;28;20193;-72
2022/12/29 03:25:36;;;;;;;3.30;3.10;;;8.10;99.90;;;;;;5071015;28;20258;-72
2022/12/29 03:28:12;;;;;;;3.10;2.90;;;8.00;99.90;;;;;;5070940;28;20254;-78
2022/12/29 03:30:47;;;;;;;2.70;2.50;;;8.00;99.90;;;;;;5070389;28;20659;-69
2022/12/29 03:33:23;;;;;;;2.57;2.43;;;8.00;99.90;;;;;;5071929;28;20706;-72
2022/12/29 03:35:58;;;;;;;2.40;2.30;;;8.00;99.90;;;;;;5070281;28;20235;-74
2022/12/29 03:38:36;;;;;;;3.07;2.73;;;8.00;99.90;;;;;;5070335;28;20208;-76
2022/12/29 03:41:09;;;;;;;2.73;2.53;;;7.90;99.90;;;;;;5088376;28;20207;-79
2022/12/29 03:43:39;;;;;;;3.00;2.77;;;7.90;99.90;;;;;;5090264;28;20683;-70
2022/12/29 03:46:08;;;;;;;3.10;2.90;;;7.90;99.90;;;;;;5091681;28;20187;-76
2022/12/29 03:48:39;;;;;;;3.30;3.10;;;7.90;99.90;;;;;;5090240;28;20621;-73
2022/12/29 03:51:11;;;;;;;3.37;3.17;;;7.90;99.90;;;;;;5105727;28;20215;-70
2022/12/29 03:53:40;;;;;;;3.73;3.43;;;8.00;99.90;;;;;;5090406;28;20208;-69
2022/12/29 03:56:09;;;;;;;3.57;3.30;;;8.00;99.90;;;;;;5090027;28;20270;-77
2022/12/29 03:58:38;;;;;;;4.30;3.57;;;7.90;99.90;;;;;;5090323;28;20287;-79
2022/12/29 04:01:15;;;;;;;3.60;3.40;;;7.90;99.90;;;;;;5093876;28;20252;-72
2022/12/29 04:03:44;;;;;;;3.70;3.40;;;7.80;99.90;;;;;;5094037;28;20197;-72
2022/12/29 04:06:15;;;;;;;3.40;3.20;;;7.90;99.90;;;;;;5094018;28;20192;-72
2022/12/29 04:08:51;;;;;;;4.53;4.13;;;7.90;99.90;;;;;;5094075;28;20196;-69
2022/12/29 04:11:20;;;;;;;4.87;4.27;;;7.90;99.90;;;;;;5093985;28;20204;-77
2022/12/29 04:13:49;;;;;;;4.23;3.93;;;7.90;99.90;;;;;;5092857;28;20263;-69
2022/12/29 04:16:21;;;;;;;4.47;4.07;;;8.00;99.90;;;;;;5091763;28;20263;-70
2022/12/29 04:18:51;;;;;;;4.70;4.30;;;8.00;99.90;;;;;;5110826;28;20272;-69
2022/12/29 04:21:21;;;;;;;4.00;3.70;;;7.90;99.90;;;;;;5093624;28;20196;-77
2022/12/29 04:23:50;;;;;;;4.37;4.07;;;7.90;99.90;;;;;;5093637;28;20273;-72
2022/12/29 04:26:19;;;;;;;3.90;3.63;;;7.90;99.90;;;;;;5093512;28;20719;-74
2022/12/29 04:29:14;;;;;;;6.17;4.67;;;8.00;99.90;;;;;;5093437;28;20205;-69
2022/12/29 04:31:52;;;;;;;5.03;4.60;;;7.90;99.90;;;;;;5093586;28;20201;-69
2022/12/29 04:34:21;;;;;;;5.80;5.30;;;8.00;99.90;;;;;;5093357;28;20227;-70
2022/12/29 04:36:51;;;;;;;5.93;5.33;;;7.90;99.90;;;;;;5092625;28;20235;-74
2022/12/29 04:39:21;;;;;;;5.70;5.20;;;7.90;99.90;;;;;;5086980;28;20232;-74
2022/12/29 04:41:49;;;;;;;6.80;6.20;;;7.90;99.90;;;;;;5082898;28;20232;-75
2022/12/29 04:44:21;;;;;;;6.30;5.73;;;7.90;99.90;;;;;;5073096;28;20204;-72
2022/12/29 04:47:10;;;;;;;7.07;6.37;;;7.90;99.90;;;;;;5073924;28;20197;-72
2022/12/29 04:49:52;;;;;;;7.03;6.43;;;7.90;99.90;;;;;;5073102;28;20209;-70
2022/12/29 04:52:51;;;;;;;11.70;7.77;;;8.00;99.90;;;;;;5079906;28;20223;-70
2022/12/29 04:55:20;;;;;;;9.63;8.17;;;8.00;99.90;;;;;;5092490;28;20235;-77
2022/12/29 04:57:50;;;;;;;13.03;8.53;;;8.00;99.90;;;;;;5093023;28;20213;-71
2022/12/29 05:00:21;;;;;;;9.47;8.47;;;8.00;99.90;;;;;;5093143;28;20242;-73
2022/12/29 05:02:50;;;;;;;10.27;8.40;;;8.00;99.90;;;;;;5093241;28;20204;-69
2022/12/29 05:05:19;;;;;;;10.10;8.00;;;8.00;99.90;;;;;;5092803;28;20208;-77
2022/12/29 05:07:52;;;;;;;10.13;8.30;;;8.00;99.90;;;;;;5092728;28;20314;-75
2022/12/29 05:10:21;;;;;;;9.27;8.37;;;8.00;99.90;;;;;;5092672;28;20307;-70
2022/12/29 05:12:53;;;;;;;10.17;8.40;;;7.90;99.90;;;;;;5092450;28;20221;-76
2022/12/29 05:15:22;;;;;;;9.63;8.67;;;8.00;99.90;;;;;;5092646;28;20226;-69
2022/12/29 05:17:51;;;;;;;14.43;9.70;;;8.00;99.90;;;;;;5092626;28;20295;-70
2022/12/29 05:20:20;;;;;;;12.73;9.73;;;8.00;99.90;;;;;;5092387;28;20220;-76
2022/12/29 05:22:51;;;;;;;14.67;10.63;;;8.00;99.90;;;;;;5092433;28;20577;-74
2022/12/29 05:25:20;;;;;;;13.20;9.10;;;8.00;99.90;;;;;;5093562;28;20642;-70
2022/12/29 05:27:56;;;;;;;10.97;8.77;;;8.00;99.90;;;;;;5092431;28;20302;-71
2022/12/29 05:30:48;;;;;;;11.17;9.27;;;7.90;99.90;;;;;;5092980;28;20674;-72
2022/12/29 05:33:18;;;;;;;9.37;8.33;;;8.00;99.90;;;;;;5092103;28;20563;-70
2022/12/29 05:35:49;;;;;;;12.27;9.60;;;8.00;99.90;;;;;;5092235;28;20282;-69
2022/12/29 05:38:24;;;;;;;11.17;10.07;;;8.00;99.90;;;;;;5092097;28;20219;-69
2022/12/29 05:40:53;;;;;;;11.30;10.03;;;8.00;99.90;;;;;;5092155;28;20623;-71
2022/12/29 05:43:40;;;;;;;12.33;9.93;;;8.00;99.90;;;;;;5093527;28;20203;-70
2022/12/29 05:46:29;;;;;;;16.07;10.93;;;8.00;99.90;;;;;;5092734;28;20207;-70
2022/12/29 05:49:20;;;;;;;14.67;10.27;;;8.00;99.90;;;;;;5091897;28;20266;-70
2022/12/29 05:52:04;;;;;;;11.77;10.50;;;8.00;99.90;;;;;;5091766;28;20208;-70
2022/12/29 05:54:36;;;;;;;11.87;10.57;;;8.00;99.90;;;;;;5091665;28;20571;-69
2022/12/29 05:57:11;;;;;;;12.83;10.40;;;8.00;99.90;;;;;;5091458;28;20227;-70
2022/12/29 05:59:42;;;;;;;12.13;10.80;;;8.00;99.90;;;;;;5091712;28;20271;-70
2022/12/29 06:02:11;;;;;;;15.27;11.97;;;8.00;99.90;;;;;;5091733;28;20201;-71
2022/12/29 06:04:41;;;;;;;16.07;11.33;;;8.00;99.90;;;;;;5091533;28;20220;-69
2022/12/29 06:07:09;;;;;;;12.50;11.10;;;8.10;99.90;;;;;;5092860;28;20208;-72
2022/12/29 06:09:44;;;;;;;15.63;12.03;;;8.20;99.90;;;;;;5091600;28;20211;-70
2022/12/29 06:12:14;;;;;;;16.93;12.80;;;8.20;99.90;;;;;;5091166;28;20240;-71
2022/12/29 06:14:46;;;;;;;15.80;11.57;;;8.20;99.90;;;;;;5091346;28;20273;-71
2022/12/29 06:17:15;;;;;;;15.33;11.17;;;8.10;99.90;;;;;;5092626;28;20563;-70
2022/12/29 06:19:46;;;;;;;14.77;11.57;;;8.10;99.90;;;;;;5091303;28;20279;-70
2022/12/29 06:22:15;;;;;;;12.77;10.87;;;8.10;99.90;;;;;;5090908;28;20626;-70
2022/12/29 06:24:45;;;;;;;12.90;10.07;;;8.10;99.90;;;;;;5091278;28;20212;-69
2022/12/29 06:27:15;;;;;;;17.13;12.60;;;8.10;99.90;;;;;;5090920;28;20333;-71
2022/12/29 06:29:44;;;;;;;14.07;10.67;;;8.00;99.90;;;;;;5092425;28;20223;-71
2022/12/29 06:32:12;;;;;;;15.87;12.60;;;8.00;99.90;;;;;;5090934;28;20201;-70
2022/12/29 06:34:47;;;;;;;16.90;11.90;;;8.00;99.90;;;;;;5091145;28;20200;-72
2022/12/29 06:37:16;;;;;;;15.63;12.00;;;8.00;99.90;;;;;;5092223;28;20224;-70
2022/12/29 06:39:46;;;;;;;13.23;11.03;;;8.00;99.90;;;;;;5092266;28;20587;-71
2022/12/29 06:42:16;;;;;;;13.20;10.87;;;8.00;99.90;;;;;;5090799;28;20299;-70
2022/12/29 06:44:52;;;;;;;11.80;10.27;;;8.00;99.90;;;;;;5091000;28;20204;-70
2022/12/29 06:47:21;;;;;;;12.93;10.63;;;8.10;99.90;;;;;;5092201;28;20595;-73
2022/12/29 06:49:49;;;;;;;11.53;10.30;;;8.10;99.90;;;;;;5092164;28;20254;-70
2022/12/29 06:52:18;;;;;;;14.40;11.43;;;8.10;99.90;;;;;;5092086;28;20193;-70
2022/12/29 06:54:49;;;;;;;14.30;10.97;;;8.00;99.90;;;;;;5092028;28;20203;-71
2022/12/29 06:57:18;;;;;;;12.27;10.07;;;8.00;99.90;;;;;;5092021;28;20220;-70
2022/12/29 06:59:46;;;;;;;12.00;10.60;;;8.00;99.90;;;;;;5091627;28;20238;-69
2022/12/29 07:02:18;;;;;;;15.07;10.73;;;8.00;99.90;;;;;;5091951;28;20666;-71
2022/12/29 07:04:47;;;;;;;12.30;10.20;;;8.00;99.90;;;;;;5091954;28;20230;-71
2022/12/29 07:07:15;;;;;;;12.50;10.43;;;8.00;99.90;;;;;;5091880;28;20768;-71
2022/12/29 07:09:44;;;;;;;14.10;10.57;;;8.00;99.90;;;;;;5091823;28;20195;-71
2022/12/29 07:12:15;;;;;;;15.97;11.23;;;8.20;99.90;;;;;;5091559;28;20307;-71
2022/12/29 07:14:44;;;;;;;12.57;10.37;;;8.20;99.90;;;;;;5091840;28;20691;-72
2022/12/29 07:17:13;;;;;;;13.53;10.20;;;8.30;99.90;;;;;;5091781;28;20220;-72
2022/12/29 07:19:41;;;;;;;10.90;9.80;;;8.20;99.90;;;;;;5091791;28;20200;-75
2022/12/29 07:22:11;;;;;;;14.57;9.93;;;8.20;99.90;;;;;;5091696;28;20204;-76
2022/12/29 07:24:40;;;;;;;16.17;10.40;;;8.30;99.90;;;;;;5091955;28;20216;-74
2022/12/29 07:27:09;;;;;;;13.40;10.10;;;8.30;99.90;;;;;;5091639;28;20196;-70
2022/12/29 07:29:39;;;;;;;14.33;10.30;;;8.30;99.90;;;;;;5091647;28;20215;-71
2022/12/29 07:32:08;;;;;;;12.50;9.57;;;8.30;99.90;;;;;;5091731;28;20701;-76
2022/12/29 07:34:39;;;;;;;12.53;10.10;;;8.30;99.90;;;;;;5093146;28;20207;-71
2022/12/29 07:37:08;;;;;;;13.53;10.43;;;8.30;99.90;;;;;;5095487;28;20251;-76
2022/12/29 07:39:37;;;;;;;12.53;9.73;;;8.40;99.90;;;;;;5095713;28;20216;-70
2022/12/29 07:42:06;;;;;;;10.07;8.90;;;8.40;99.90;;;;;;5095644;28;20563;-76
2022/12/29 07:44:47;;;;;;;10.07;9.07;;;8.20;99.90;;;;;;5094367;28;20204;-76
2022/12/29 07:47:27;;;;;;;16.67;9.47;;;8.30;99.90;;;;;;5095470;28;20558;-70
2022/12/29 07:49:56;;;;;;;18.07;13.03;;;8.20;99.90;;;;;;5095588;28;20197;-70
2022/12/29 07:52:25;;;;;;;12.77;10.67;;;8.30;99.90;;;;;;5095494;28;20192;-74
2022/12/29 07:54:54;;;;;;;12.40;10.37;;;8.20;99.90;;;;;;5095410;28;20764;-71
2022/12/29 07:57:23;;;;;;;10.77;9.50;;;8.10;99.90;;;;;;5095295;28;20212;-74
2022/12/29 08:00:00;;;;;;;11.73;9.63;;;8.20;99.90;;;;;;5095226;28;20226;-70
2022/12/29 08:02:39;;;;;;;10.33;9.17;;;8.20;99.90;;;;;;5095213;28;20205;-73
2022/12/29 08:05:08;;;;;;;30.87;20.73;;;8.30;99.90;;;;;;5095287;28;20207;-70
2022/12/29 08:07:37;;;;;;;14.03;10.60;;;8.40;99.90;;;;;;5095244;28;20192;-71
2022/12/29 08:10:07;;;;;;;32.93;21.43;;;8.50;99.90;;;;;;5095196;28;21078;-70
2022/12/29 08:12:36;;;;;;;11.70;9.70;;;8.50;99.90;;;;;;5094633;28;20290;-70
2022/12/29 08:15:09;;;;;;;15.37;10.27;;;8.50;99.90;;;;;;5095137;28;20522;-70
2022/12/29 08:17:38;;;;;;;13.77;9.30;;;8.50;99.90;;;;;;5094843;28;20228;-69
2022/12/29 08:20:08;;;;;;;10.67;9.47;;;8.50;99.90;;;;;;5095203;28;20556;-74
2022/12/29 08:22:37;;;;;;;10.50;8.13;;;8.50;99.90;;;;;;5095034;28;20199;-71
2022/12/29 08:25:06;;;;;;;13.00;8.17;;;8.60;99.90;;;;;;5094656;28;20254;-75
2022/12/29 08:27:35;;;;;;;10.17;9.00;;;8.50;99.90;;;;;;5094670;28;20876;-71
2022/12/29 08:30:06;;;;;;;11.47;8.40;;;8.50;99.90;;;;;;5094767;28;20189;-69
2022/12/29 08:32:35;;;;;;;11.27;8.67;;;8.50;99.90;;;;;;5094634;28;20662;-72
2022/12/29 08:35:04;;;;;;;11.63;10.07;;;8.50;99.90;;;;;;5094673;28;20287;-70
2022/12/29 08:37:34;;;;;;;15.53;12.17;;;8.70;99.90;;;;;;5093171;28;20240;-70
2022/12/29 08:40:03;;;;;;;13.73;12.27;;;8.80;99.90;;;;;;5094380;28;20197;-70
2022/12/29 08:42:32;;;;;;;14.40;12.13;;;8.90;99.90;;;;;;5094372;28;20207;-72
2022/12/29 08:45:02;;;;;;;13.43;10.63;;;9.00;99.90;;;;;;5093813;28;20196;-71
2022/12/29 08:47:32;;;;;;;11.20;8.67;;;9.00;99.90;;;;;;5094476;28;20688;-70
2022/12/29 08:50:01;;;;;;;10.23;7.80;;;9.10;99.90;;;;;;5094284;28;20197;-72
2022/12/29 08:52:30;;;;;;;10.13;9.00;;;9.00;99.90;;;;;;5094210;28;20196;-69
2022/12/29 08:54:59;;;;;;;13.27;9.40;;;8.90;99.90;;;;;;5094091;28;20673;-68
2022/12/29 08:57:32;;;;;;;8.67;7.83;;;8.90;99.90;;;;;;5092722;28;20597;-71
2022/12/29 09:00:15;;;;;;;8.83;7.93;;;8.90;99.90;;;;;;5092782;28;20670;-71
2022/12/29 09:02:46;;;;;;;8.40;7.50;;;8.90;99.90;;;;;;5092963;28;20204;-72
2022/12/29 09:05:15;;;;;;;9.23;8.20;;;9.00;99.90;;;;;;5093853;28;20250;-74
2022/12/29 09:07:44;;;;;;;12.70;8.50;;;9.00;99.90;;;;;;5093896;28;20662;-72
2022/12/29 09:10:13;;;;;;;10.43;8.13;;;9.00;99.90;;;;;;5093925;28;20246;-69
2022/12/29 09:12:42;;;;;;;10.37;8.07;;;9.10;99.90;;;;;;5093628;28;20357;-70
2022/12/29 09:15:11;;;;;;;9.60;7.27;;;9.00;99.90;;;;;;5093788;28;20232;-70
2022/12/29 09:17:45;;;;;;;9.63;8.00;;;9.00;99.90;;;;;;5093580;28;20220;-72
2022/12/29 09:20:17;;;;;;;8.63;7.63;;;9.00;99.90;;;;;;5093654;28;20597;-69
2022/12/29 09:22:46;;;;;;;8.37;7.57;;;8.90;99.90;;;;;;5093521;28;20252;-72
2022/12/29 09:25:16;;;;;;;12.20;8.20;;;8.90;99.90;;;;;;5093539;28;20188;-69
2022/12/29 09:27:45;;;;;;;8.40;7.60;;;9.00;99.90;;;;;;5093221;28;20216;-70
2022/12/29 09:30:14;;;;;;;9.03;7.90;;;9.00;99.90;;;;;;5093479;28;20258;-69
2022/12/29 09:32:43;;;;;;;8.30;7.53;;;9.00;99.90;;;;;;5093493;28;20249;-69
2022/12/29 09:35:16;;;;;;;11.50;8.80;;;9.10;99.90;;;;;;5093397;28;20197;-69
2022/12/29 09:37:45;;;;;;;9.43;7.70;;;9.00;99.90;;;;;;5093256;28;20221;-71
2022/12/29 09:40:26;;;;;;;8.33;7.53;;;9.10;99.90;;;;;;5093110;28;20284;-68
2022/12/29 09:43:08;;;;;;;8.90;8.00;;;9.20;99.90;;;;;;5093383;28;20196;-69
2022/12/29 09:45:42;;;;;;;9.73;8.37;;;9.20;99.90;;;;;;5093181;28;20192;-70
2022/12/29 09:48:18;;;;;;;11.33;7.80;;;9.20;99.90;;;;;;5093110;28;20257;-70
2022/12/29 09:50:53;;;;;;;9.70;8.00;;;9.30;99.90;;;;;;5092989;28;20192;-71
2022/12/29 09:53:28;;;;;;;10.87;8.20;;;9.40;99.90;;;;;;5092823;28;20630;-70
2022/12/29 09:55:59;;;;;;;12.00;8.53;;;9.50;99.90;;;;;;5093073;28;20204;-70
2022/12/29 09:58:31;;;;;;;10.63;8.40;;;9.40;99.90;;;;;;5092037;28;20278;-69
2022/12/29 10:01:05;;;;;;;11.30;7.83;;;9.50;99.90;;;;;;5093044;28;20260;-72
2022/12/29 10:03:45;;;;;;;27.10;19.53;;;9.50;99.90;;;;;;5092911;28;20193;-71
2022/12/29 10:06:19;;;;;;;23.80;17.40;;;9.50;99.90;;;;;;5092888;28;20199;-70
2022/12/29 10:08:54;;;;;;;12.47;10.00;;;9.60;99.90;;;;;;5092785;28;20201;-70
2022/12/29 10:11:35;;;;;;;12.90;10.33;;;9.60;99.90;;;;;;5092760;28;20197;-70
2022/12/29 10:14:19;;;;;;;12.73;7.87;;;9.70;99.90;;;;;;5092392;28;20751;-71
2022/12/29 10:16:55;;;;;;;15.43;11.23;;;9.60;99.90;;;;;;5092636;28;20203;-70
2022/12/29 10:19:50;;;;;;;14.47;10.13;;;9.60;99.90;;;;;;5092609;28;20226;-74
2022/12/29 10:22:32;;;;;;;24.43;17.27;;;9.60;99.90;;;;;;5092527;28;20674;-70
2022/12/29 10:25:03;;;;;;;42.23;26.93;;;9.70;99.90;;;;;;5092358;28;20190;-70
2022/12/29 10:27:33;;;;;;;11.27;8.60;;;9.80;99.90;;;;;;5092306;28;20199;-72
2022/12/29 10:30:04;;;;;;;9.27;7.87;;;9.80;99.90;;;;;;5092639;28;20200;-72
2022/12/29 10:32:37;;;;;;;8.63;7.47;;;9.90;99.90;;;;;;5092363;28;20219;-70
2022/12/29 10:35:13;;;;;;;6.90;6.30;;;10.00;99.90;;;;;;5092276;28;20205;-72
2022/12/29 10:37:50;;;;;;;13.05;9.15;;;10.00;99.90;;;;;;5092135;28;20196;-71
2022/12/29 10:40:26;;;;;;;10.60;8.00;;;10.00;99.90;;;;;;5092259;28;20735;-71
2022/12/29 10:42:58;;;;;;;11.07;9.07;;;10.10;99.90;;;;;;5092390;28;20188;-70
2022/12/29 10:45:31;;;;;;;8.23;6.40;;;10.10;99.90;;;;;;5092175;28;20203;-71
2022/12/29 10:48:04;;;;;;;7.70;6.90;;;10.10;99.90;;;;;;5090751;28;20660;-71
2022/12/29 10:50:34;;;;;;;7.70;6.70;;;10.00;99.90;;;;;;5091898;28;20207;-70
2022/12/29 10:53:06;;;;;;;7.27;6.20;;;10.10;99.90;;;;;;5090283;28;20202;-69
2022/12/29 10:55:37;;;;;;;7.37;6.10;;;10.10;99.90;;;;;;5091971;28;20197;-73
2022/12/29 10:58:08;;;;;;;9.13;6.93;;;10.20;99.90;;;;;;5091805;28;20204;-69
2022/12/29 11:00:38;;;;;;;8.37;6.13;;;10.20;99.90;;;;;;5091834;28;20198;-70
2022/12/29 11:03:47;;;;;;;9.20;6.53;;;10.30;99.90;;;;;;5091973;28;20546;-76
2022/12/29 11:06:23;;;;;;;7.73;6.80;;;10.20;99.90;;;;;;5091852;28;20684;-70
2022/12/29 11:08:56;;;;;;;8.40;6.07;;;10.10;99.90;;;;;;5091525;28;20193;-76
2022/12/29 11:11:29;;;;;;;7.90;6.47;;;10.10;99.90;;;;;;5090741;28;20211;-76
2022/12/29 11:14:00;;;;;;;7.13;6.40;;;10.00;99.90;;;;;;5091651;28;20274;-76
2022/12/29 11:16:31;;;;;;;11.07;7.13;;;10.00;99.90;;;;;;5091925;28;20200;-78
2022/12/29 11:19:01;;;;;;;8.03;7.23;;;10.00;99.90;;;;;;5091932;28;20245;-72
2022/12/29 11:21:39;;;;;;;12.73;8.83;;;9.90;99.90;;;;;;5091184;28;20593;-70
2022/12/29 11:24:21;;;;;;;9.53;7.23;;;9.90;99.90;;;;;;5091783;28;20213;-77
2022/12/29 11:26:52;;;;;;;9.53;7.80;;;10.00;99.90;;;;;;5091840;28;20224;-74
2022/12/29 11:29:28;;;;;;;27.93;19.53;;;10.10;99.90;;;;;;5091931;28;20564;-71
2022/12/29 11:31:59;;;;;;;11.27;7.47;;;10.10;99.90;;;;;;5091763;28;20194;-70
2022/12/29 11:34:33;;;;;;;8.97;7.23;;;9.90;99.90;;;;;;5091564;28;20227;-72
2022/12/29 11:37:07;;;;;;;7.40;6.70;;;9.90;99.90;;;;;;5091708;28;20193;-73
2022/12/29 11:39:41;;;;;;;8.80;7.10;;;9.90;99.90;;;;;;5091557;28;20225;-75
2022/12/29 11:42:16;;;;;;;10.30;7.60;;;9.90;99.90;;;;;;5091583;28;20249;-77
2022/12/29 11:44:47;;;;;;;9.07;6.50;;;10.00;99.90;;;;;;5091459;28;20197;-78
2022/12/29 11:47:26;;;;;;;7.27;6.53;;;10.00;99.90;;;;;;5091675;28;20209;-73
2022/12/29 11:49:58;;;;;;;8.47;6.77;;;10.10;99.90;;;;;;5091526;28;20286;-72
2022/12/29 11:52:30;;;;;;;8.70;7.17;;;10.10;99.90;;;;;;5091471;28;20190;-78
2022/12/29 11:55:03;;;;;;;7.83;7.03;;;10.20;99.90;;;;;;5091455;28;20260;-70
2022/12/29 11:57:35;;;;;;;10.83;7.97;;;10.20;99.90;;;;;;5091171;28;20564;-78
2022/12/29 12:00:16;;;;;;;8.47;7.20;;;10.20;99.90;;;;;;5090038;28;20780;-76
2022/12/29 12:02:56;;;;;;;13.00;10.03;;;10.10;99.90;;;;;;5091161;28;20200;-73
2022/12/29 12:05:34;;;;;;;45.03;25.57;;;10.10;99.90;;;;;;5091490;28;20670;-74
2022/12/29 12:08:13;;;;;;;16.20;8.97;;;10.20;99.90;;;;;;5091284;28;20195;-69
2022/12/29 12:10:56;;;;;;;7.57;6.10;;;10.30;99.90;;;;;;5091546;28;20636;-71
2022/12/29 12:13:31;;;;;;;8.70;6.67;;;10.20;99.90;;;;;;5089798;28;20282;-71
2022/12/29 12:16:08;;;;;;;7.37;5.50;;;10.30;99.90;;;;;;5089908;28;20726;-70
2022/12/29 12:18:43;;;;;;;9.67;6.93;;;10.30;99.90;;;;;;5089770;28;20200;-71
2022/12/29 12:21:23;;;;;;;7.70;5.83;;;10.20;99.90;;;;;;5093300;28;20207;-72
2022/12/29 12:24:15;;;;;;;10.23;5.53;;;10.30;99.90;;;;;;5094783;28;20193;-73
2022/12/29 12:26:56;;;;;;;5.83;4.97;;;10.20;99.90;;;;;;5094755;28;20193;-74
2022/12/29 12:29:29;;;;;;;6.73;4.67;;;10.20;99.90;;;;;;5094611;28;20365;-71
2022/12/29 12:32:03;;;;;;;7.13;5.30;;;10.20;99.90;;;;;;5094778;28;20201;-76
2022/12/29 12:34:36;;;;;;;6.10;5.50;;;10.30;99.90;;;;;;5094621;28;20215;-75
2022/12/29 12:37:37;;;;;;;7.77;5.67;;;10.30;99.90;;;;;;5094500;28;20224;-72
2022/12/29 12:40:34;;;;;;;6.60;5.17;;;10.30;99.90;;;;;;5094569;28;20607;-73
2022/12/29 12:43:22;;;;;;;5.87;5.13;;;10.30;99.90;;;;;;5094522;28;20216;-70
2022/12/29 12:46:02;;;;;;;8.27;5.60;;;10.40;99.90;;;;;;5094698;28;20588;-76
2022/12/29 12:48:48;;;;;;;5.77;5.07;;;10.40;99.90;;;;;;5094239;28;20224;-68
2022/12/29 12:51:29;;;;;;;7.30;5.10;;;10.40;99.90;;;;;;5094153;28;20561;-74
2022/12/29 12:54:12;;;;;;;5.20;4.70;;;10.40;99.90;;;;;;5094358;28;20556;-70
2022/12/29 12:57:01;;;;;;;5.20;4.70;;;10.50;99.90;;;;;;5094114;28;20201;-72
2022/12/29 12:59:51;;;;;;;6.27;5.57;;;10.50;99.90;;;;;;5094001;28;20207;-71
2022/12/29 13:02:33;;;;;;;7.90;4.87;;;10.50;99.90;;;;;;5094559;28;20198;-71
2022/12/29 13:05:30;;;;;;;6.37;5.40;;;10.50;99.90;;;;;;5094096;28;20206;-73
2022/12/29 13:08:34;;;;;;;6.43;5.27;;;10.50;99.90;;;;;;5094173;28;20289;-74
2022/12/29 13:11:13;;;;;;;5.57;4.93;;;10.50;99.90;;;;;;5093738;28;20198;-70
2022/12/29 13:14:11;;;;;;;5.77;5.27;;;10.60;99.90;;;;;;5093401;28;20331;-72
2022/12/29 13:16:47;;;;;;;7.70;5.00;;;10.50;99.90;;;;;;5092690;28;20252;-76
2022/12/29 13:19:25;;;;;;;7.30;5.63;;;10.50;99.90;;;;;;5093724;28;20223;-77
2022/12/29 13:22:03;;;;;;;7.60;4.67;;;10.60;99.90;;;;;;5094159;28;20200;-78
2022/12/29 13:24:48;;;;;;;6.77;4.93;;;10.60;99.90;;;;;;5093742;28;20631;-72
2022/12/29 13:27:21;;;;;;;5.13;4.63;;;10.60;99.90;;;;;;5092432;28;20232;-70
2022/12/29 13:29:58;;;;;;;5.07;4.40;;;10.60;99.90;;;;;;5093722;28;20197;-73
2022/12/29 13:32:38;;;;;;;6.73;5.13;;;10.50;99.90;;;;;;5093817;28;20609;-75
2022/12/29 13:35:21;;;;;;;5.43;4.93;;;10.50;99.90;;;;;;5093441;28;20243;-74
2022/12/29 13:37:56;;;;;;;6.83;5.80;;;10.50;99.90;;;;;;5093939;28;20647;-75
2022/12/29 13:40:29;;;;;;;6.33;5.23;;;10.50;99.90;;;;;;5093704;28;20215;-75
2022/12/29 13:42:59;;;;;;;7.30;6.17;;;10.50;99.90;;;;;;5093624;28;20243;-73
2022/12/29 13:45:32;;;;;;;6.73;5.60;;;10.50;99.90;;;;;;5093457;28;20206;-71
2022/12/29 13:48:07;;;;;;;6.70;5.60;;;10.50;99.90;;;;;;5093964;28;20206;-76
2022/12/29 13:50:40;;;;;;;8.23;6.53;;;10.40;99.90;;;;;;5093262;28;20573;-71
2022/12/29 13:53:19;;;;;;;6.90;6.20;;;10.40;99.90;;;;;;5093255;28;20208;-76
2022/12/29 13:55:56;;;;;;;8.33;5.77;;;10.40;99.90;;;;;;5093228;28;20188;-71
2022/12/29 13:58:33;;;;;;;6.60;6.00;;;10.50;99.90;;;;;;5093161;28;20200;-72